Messwerte Assuan

Temperatur

Temperatur
°C
1574197200 23.00 23.00 22
1574200800 0.00 0.00 21
1574204400 1.00 1.00 21
1574208000 2.00 2.00 20
1574211600 3.00 3.00 19
1574215200 4.00 4.00 18
1574218800 5.00 5.00 18
1574222400 6.00 6.00 18
1574226000 7.00 7.00 17
1574229600 8.00 8.00 20
1574233200 9.00 9.00 20
1574236800 10.00 10.00 24
1574240400 11.00 11.00 26
1574244000 12.00 12.00 28
1574247600 13.00 13.00
1574251200 14.00 14.00 29
1574254800 15.00 15.00
1574258400 16.00 16.00
1574262000 17.00 17.00 27
1574265600 18.00 18.00 26
1574269200 19.00 19.00 25
1574272800 20.00 20.00 24
1574276400 21.00 21.00 23
1574280000 22.00 22.00 22

Aktuellste Messwerte

Wettercharakter
Wetter: meist klar
Temperatur
22 °C
Feuchtigkeit
35 %
Wind
15 km/hWindrichtung: Nord
Luftdruck
1015 hPa
Messzeit: 20. November 2019, 22.00Datenquelle: METAR

Weitere Messstationen in der Nähe

Messstation Temperatur Entfernung
Luxor 22 °C 189 km
Abu Simbel 22 °C 214 km
Marsa Alam Intl 21 °C 247 km
Hurghada 19 °C 366 km
Asyut 18 °C 385 km
Al Wajh 23 °C 447 km
Sharm-el-Sheikh 21 °C 471 km

Wind

Windrichtung Böen Mittelwind
° km/h km/h
1574197200 23.00 22.00 - 23.00 30° 10
1574200800 0.00 23.00 - 0.00 20° 10
1574204400 1.00 0.00 - 1.00 360° 20
1574208000 2.00 1.00 - 2.00 360° 5
1574211600 3.00 2.00 - 3.00 350° 40
1574215200 4.00 3.00 - 4.00 10° 20
1574218800 5.00 4.00 - 5.00 360° 50
1574222400 6.00 5.00 - 6.00 10° 40
1574226000 7.00 6.00 - 7.00 10° 15
1574229600 8.00 7.00 - 8.00 10° 10
1574233200 9.00 8.00 - 9.00 10° 10
1574236800 10.00 9.00 - 10.00 20° 15
1574240400 11.00 10.00 - 11.00 360° 10
1574244000 12.00 11.00 - 12.00 10° 10
1574247600 13.00 12.00 - 13.00
1574251200 14.00 13.00 - 14.00 10° 15
1574254800 15.00 14.00 - 15.00
1574258400 16.00 15.00 - 16.00
1574262000 17.00 16.00 - 17.00 350° 15
1574265600 18.00 17.00 - 18.00 350° 10
1574269200 19.00 18.00 - 19.00 340° 20
1574272800 20.00 19.00 - 20.00 360° 15
1574276400 21.00 20.00 - 21.00 360° 10
1574280000 22.00 21.00 - 22.00 20° 15

Ihre Wetterstation

Fehlt Ihre Wetterstation auf unserem Portal?

Schreiben Sie an network@meteonews.ch

Klima

Wann ist es am wärmsten? Wann regnet es am wenigsten? Unsere Klimadaten geben Auskunft.